Time;durP1;ratioP1;P1;durP2;ratioP2;P2;SDS_P1;SDS_P2;PMS_P1;PMS_P2;Temp;Humidity;BMP_temperature;BMP_pressure;BME280_temperature;BME280_humidity;BME280_pressure;Samples;Min_cycle;Max_cycle;Signal;HPM_P1;HPM_P2
2023/07/13 00:02:15;;;;;;;10.55;4.72;;;15.70;99.90;;;;;;5057097;28;20048;-86
2023/07/13 00:04:40;;;;;;;12.45;5.97;;;15.70;99.90;;;;;;5060532;28;20086;-86
2023/07/13 00:07:08;;;;;;;11.77;5.65;;;15.70;99.90;;;;;;5053892;28;20426;-86
2023/07/13 00:09:34;;;;;;;9.60;5.25;;;15.70;99.90;;;;;;5037230;28;20494;-86
2023/07/13 00:12:00;;;;;;;9.43;5.97;;;15.70;99.90;;;;;;5037053;28;20036;-86
2023/07/13 00:14:27;;;;;;;12.98;6.00;;;15.80;99.90;;;;;;5037196;28;20275;-86
2023/07/13 00:16:54;;;;;;;10.07;4.95;;;15.80;99.90;;;;;;5037050;28;20036;-86
2023/07/13 00:19:20;;;;;;;9.77;6.35;;;15.80;99.90;;;;;;5047718;28;20040;-86
2023/07/13 00:21:47;;;;;;;13.07;9.73;;;15.80;99.90;;;;;;5073511;28;20404;-86
2023/07/13 00:24:18;;;;;;;16.85;9.63;;;15.90;99.90;;;;;;5091875;28;20199;-86
2023/07/13 00:26:45;;;;;;;17.20;9.50;;;15.90;99.90;;;;;;5073357;28;20071;-86
2023/07/13 00:29:11;;;;;;;14.70;8.63;;;15.90;99.90;;;;;;5073449;28;20048;-87
2023/07/13 00:31:37;;;;;;;16.20;11.98;;;15.90;99.90;;;;;;5056239;28;20040;-86
2023/07/13 00:34:03;;;;;;;11.88;10.50;;;16.00;99.90;;;;;;5056558;28;20535;-86
2023/07/13 00:36:30;;;;;;;15.90;12.63;;;16.00;99.90;;;;;;5069487;28;20052;-87
2023/07/13 00:38:56;;;;;;;12.20;9.93;;;16.10;99.90;;;;;;5052957;28;20503;-87
2023/07/13 00:41:22;;;;;;;11.25;9.35;;;16.10;99.90;;;;;;5036418;28;20036;-87
2023/07/13 00:43:47;;;;;;;15.40;12.15;;;16.20;99.90;;;;;;5053354;28;20040;-86
2023/07/13 00:46:26;;;;;;;18.60;10.57;;;16.20;99.90;;;;;;5035905;28;20399;-87
2023/07/13 00:48:54;;;;;;;21.40;12.20;;;16.20;99.90;;;;;;5053408;28;20036;-87
2023/07/13 00:51:45;;;;;;;18.55;12.18;;;16.20;99.90;;;;;;5069805;28;20035;-87
2023/07/13 00:54:14;;;;;;;19.75;12.52;;;16.20;99.90;;;;;;5053050;28;20044;-87
2023/07/13 00:56:43;;;;;;;19.05;11.30;;;16.30;99.90;;;;;;5036356;28;20043;-87
2023/07/13 00:59:11;;;;;;;21.10;13.05;;;16.30;99.90;;;;;;5036225;28;20036;-87
2023/07/13 01:01:37;;;;;;;15.45;13.80;;;16.40;99.90;;;;;;5052466;28;20456;-86
2023/07/13 01:04:03;;;;;;;14.73;12.10;;;16.40;99.90;;;;;;5070932;28;20044;-87
2023/07/13 01:06:30;;;;;;;17.00;11.88;;;16.40;99.90;;;;;;5042863;28;20048;-86
2023/07/13 01:08:57;;;;;;;13.90;12.25;;;16.40;99.90;;;;;;5072128;28;20033;-88
2023/07/13 01:11:23;;;;;;;19.10;11.15;;;16.40;99.90;;;;;;5037743;28;20064;-87
2023/07/13 01:13:49;;;;;;;19.90;8.82;;;16.40;99.90;;;;;;5036789;28;20036;-87
2023/07/13 01:16:21;;;;;;;22.48;9.57;;;16.50;99.90;;;;;;5036142;28;20032;-87
2023/07/13 01:18:47;;;;;;;26.35;15.95;;;16.40;99.90;;;;;;5035967;28;20131;-87
2023/07/13 01:21:13;;;;;;;17.05;10.27;;;16.50;99.90;;;;;;5036777;28;20091;-87
2023/07/13 01:23:39;;;;;;;18.63;10.50;;;16.50;99.90;;;;;;5072458;28;20040;-86
2023/07/13 01:26:04;;;;;;;17.88;12.40;;;16.40;99.90;;;;;;5055747;28;20039;-87
2023/07/13 01:28:30;;;;;;;16.45;10.25;;;16.50;99.90;;;;;;5072449;28;20029;-87
2023/07/13 01:30:58;;;;;;;20.38;11.73;;;16.50;99.90;;;;;;5071943;28;20065;-86
2023/07/13 01:33:25;;;;;;;21.27;11.75;;;16.50;99.90;;;;;;5055611;28;20032;-87
2023/07/13 01:35:50;;;;;;;21.23;10.63;;;16.50;99.90;;;;;;5089972;28;20520;-87
2023/07/13 01:38:20;;;;;;;17.92;11.23;;;16.50;99.90;;;;;;5052344;28;20040;-87
2023/07/13 01:40:46;;;;;;;16.20;10.63;;;16.60;99.90;;;;;;5052329;28;20040;-87
2023/07/13 01:43:12;;;;;;;19.80;12.50;;;16.70;99.90;;;;;;5052057;28;20681;-86
2023/07/13 01:45:38;;;;;;;18.38;10.35;;;16.70;99.90;;;;;;5035079;28;20037;-87
2023/07/13 01:48:06;;;;;;;16.35;13.52;;;16.70;99.90;;;;;;5053280;28;20043;-86
2023/07/13 01:50:33;;;;;;;18.48;11.00;;;16.80;99.90;;;;;;5041462;28;20031;-86
2023/07/13 01:52:58;;;;;;;16.75;10.05;;;16.80;99.90;;;;;;5072134;28;20036;-86
2023/07/13 01:55:24;;;;;;;19.58;10.52;;;16.80;99.90;;;;;;5055205;28;20058;-86
2023/07/13 01:57:50;;;;;;;18.10;10.38;;;16.80;99.90;;;;;;5055135;28;20068;-87
2023/07/13 02:00:16;;;;;;;15.15;10.90;;;16.80;99.90;;;;;;5054871;28;20267;-86
2023/07/13 02:02:43;;;;;;;18.77;10.43;;;16.80;99.90;;;;;;5054863;28;20642;-87
2023/07/13 02:05:08;;;;;;;18.08;12.60;;;16.80;99.90;;;;;;5067763;28;20059;-86
2023/07/13 02:07:34;;;;;;;18.52;10.82;;;16.80;99.90;;;;;;5035289;28;20049;-87
2023/07/13 02:10:00;;;;;;;17.75;11.05;;;16.80;99.90;;;;;;5034944;28;20059;-86
2023/07/13 02:12:25;;;;;;;17.65;11.70;;;16.80;99.90;;;;;;5035205;28;20036;-86
2023/07/13 02:14:51;;;;;;;14.93;9.88;;;16.70;99.90;;;;;;5051096;28;20064;-86
2023/07/13 02:17:17;;;;;;;16.90;9.55;;;16.70;99.90;;;;;;5051399;28;20056;-87
2023/07/13 02:19:42;;;;;;;15.80;10.93;;;16.70;99.90;;;;;;5039008;28;20036;-86
2023/07/13 02:22:08;;;;;;;20.33;11.55;;;16.70;99.90;;;;;;5054891;28;20224;-86
2023/07/13 02:24:34;;;;;;;16.02;12.75;;;16.70;99.90;;;;;;5071704;28;20036;-86
2023/07/13 02:27:00;;;;;;;19.00;11.35;;;16.70;99.90;;;;;;5054610;28;20032;-86
2023/07/13 02:29:25;;;;;;;15.70;10.15;;;16.70;99.90;;;;;;5070881;28;20114;-86
2023/07/13 02:31:51;;;;;;;17.48;10.27;;;16.60;99.90;;;;;;5089245;28;20034;-86
2023/07/13 02:34:17;;;;;;;22.25;11.20;;;16.60;99.90;;;;;;5068401;28;20323;-86
2023/07/13 02:36:43;;;;;;;13.63;9.55;;;16.50;99.90;;;;;;5034691;28;20041;-86
2023/07/13 02:39:11;;;;;;;13.25;7.55;;;16.50;99.90;;;;;;5034268;28;20403;-86
2023/07/13 02:41:36;;;;;;;15.13;9.52;;;16.50;99.90;;;;;;5051057;28;20123;-86
2023/07/13 02:44:03;;;;;;;15.48;8.73;;;16.50;99.90;;;;;;5050693;28;20452;-86
2023/07/13 02:46:34;;;;;;;12.65;10.18;;;16.50;99.90;;;;;;5050905;28;20036;-87
2023/07/13 02:49:00;;;;;;;17.48;9.35;;;16.50;99.90;;;;;;5053089;28;20536;-87
2023/07/13 02:51:26;;;;;;;18.13;9.90;;;16.40;99.90;;;;;;5054467;28;20050;-86
2023/07/13 02:53:52;;;;;;;16.83;9.43;;;16.40;99.90;;;;;;5070839;28;20635;-86
2023/07/13 02:56:23;;;;;;;16.65;12.90;;;16.30;99.90;;;;;;5054567;28;20443;-86
2023/07/13 02:58:49;;;;;;;14.88;9.48;;;16.30;99.90;;;;;;5053736;28;20038;-86
2023/07/13 03:01:17;;;;;;;21.40;12.30;;;16.20;99.90;;;;;;5054064;28;20127;-86
2023/07/13 03:03:43;;;;;;;16.90;10.27;;;16.20;99.90;;;;;;5068861;28;20086;-86
2023/07/13 03:06:09;;;;;;;18.50;10.30;;;16.10;99.90;;;;;;5034000;28;20079;-86
2023/07/13 03:08:34;;;;;;;17.38;8.40;;;16.10;99.90;;;;;;5034160;28;20121;-85
2023/07/13 03:11:02;;;;;;;15.07;10.73;;;16.00;99.90;;;;;;5068781;28;20040;-86
2023/07/13 03:13:28;;;;;;;17.75;8.95;;;15.90;99.90;;;;;;5050766;28;20033;-85
2023/07/13 03:15:54;;;;;;;13.98;8.65;;;15.80;99.90;;;;;;5034026;28;20040;-86
2023/07/13 03:18:20;;;;;;;17.92;10.57;;;15.70;99.90;;;;;;5051623;28;20043;-86
2023/07/13 03:20:46;;;;;;;14.52;8.98;;;15.80;99.90;;;;;;5053729;28;20028;-86
2023/07/13 03:23:11;;;;;;;17.55;10.07;;;15.60;99.90;;;;;;5070644;28;20118;-86
2023/07/13 03:25:37;;;;;;;16.63;10.13;;;15.60;99.90;;;;;;5069973;28;20040;-86
2023/07/13 03:28:04;;;;;;;17.77;10.35;;;15.50;99.90;;;;;;5054125;28;20038;-86
2023/07/13 03:30:30;;;;;;;15.32;10.00;;;15.50;99.90;;;;;;5054042;28;20410;-86
2023/07/13 03:32:55;;;;;;;16.17;7.57;;;15.40;99.90;;;;;;5054183;28;20047;-86
2023/07/13 03:35:21;;;;;;;20.15;10.80;;;15.40;99.90;;;;;;5066667;28;20056;-86
2023/07/13 03:37:47;;;;;;;16.27;7.38;;;15.50;99.90;;;;;;5033807;28;20048;-86
2023/07/13 03:40:13;;;;;;;16.92;9.45;;;15.50;99.90;;;;;;5033431;28;20048;-86
2023/07/13 03:42:39;;;;;;;18.08;9.15;;;15.50;99.90;;;;;;5068188;28;20102;-86
2023/07/13 03:45:05;;;;;;;17.80;8.05;;;15.50;99.90;;;;;;5050158;28;20498;-86
2023/07/13 03:47:31;;;;;;;15.50;9.80;;;15.50;99.90;;;;;;5068513;28;20460;-86
2023/07/13 03:49:57;;;;;;;21.67;9.02;;;15.50;99.90;;;;;;5050129;28;20098;-86
2023/07/13 03:52:23;;;;;;;18.83;8.32;;;15.50;99.90;;;;;;5050509;28;20032;-86
2023/07/13 03:54:48;;;;;;;13.10;8.02;;;15.50;99.90;;;;;;5049941;28;20398;-86
2023/07/13 03:57:29;;;;;;;;;;;;;;;;;;;;;
2023/07/13 03:59:55;;;;;;;22.63;8.43;;;15.70;99.90;;;;;;5059417;28;20380;-86
2023/07/13 04:02:21;;;;;;;18.65;7.95;;;15.80;99.90;;;;;;5033863;28;20067;-86
2023/07/13 04:04:47;;;;;;;19.50;7.65;;;15.90;99.90;;;;;;5038619;28;20055;-87
2023/07/13 04:07:13;;;;;;;17.85;8.75;;;15.90;99.90;;;;;;5038760;28;20435;-86
2023/07/13 04:09:38;;;;;;;19.45;8.82;;;16.00;99.90;;;;;;5033045;28;20041;-86
2023/07/13 04:12:05;;;;;;;15.90;7.03;;;16.00;99.90;;;;;;5052333;28;20039;-86
2023/07/13 04:14:30;;;;;;;18.30;8.80;;;16.00;99.90;;;;;;5093641;28;20081;-86
2023/07/13 04:16:57;;;;;;;20.13;9.20;;;16.10;99.90;;;;;;5077152;28;20043;-86
2023/07/13 04:19:23;;;;;;;19.48;8.23;;;16.20;99.90;;;;;;5093955;28;20119;-86
2023/07/13 04:21:49;;;;;;;18.05;8.52;;;16.20;99.90;;;;;;5077240;28;20124;-87
2023/07/13 04:24:14;;;;;;;15.38;8.15;;;16.30;99.90;;;;;;5080456;28;20501;-86
2023/07/13 04:26:40;;;;;;;16.95;7.35;;;16.30;99.90;;;;;;5073345;28;20044;-86
2023/07/13 04:29:06;;;;;;;16.88;7.60;;;16.30;99.90;;;;;;5091472;28;20794;-86
2023/07/13 04:31:33;;;;;;;16.95;9.75;;;16.40;99.90;;;;;;5056439;28;20044;-86
2023/07/13 04:33:58;;;;;;;17.05;9.55;;;16.50;99.90;;;;;;5056739;28;20079;-86
2023/07/13 04:36:26;;;;;;;20.45;11.07;;;16.60;99.90;;;;;;5056793;28;20036;-86
2023/07/13 04:38:53;;;;;;;15.77;9.32;;;16.70;99.90;;;;;;5072866;28;20055;-86
2023/07/13 04:41:20;;;;;;;15.30;11.40;;;16.80;99.90;;;;;;5073392;28;20043;-85
2023/07/13 04:43:46;;;;;;;16.38;13.13;;;16.80;99.90;;;;;;5048024;28;20032;-85
2023/07/13 04:46:13;;;;;;;18.23;11.98;;;16.80;99.90;;;;;;5036266;28;20082;-86
2023/07/13 04:48:39;;;;;;;23.50;14.82;;;16.90;99.90;;;;;;5053772;28;20036;-86
2023/07/13 04:51:05;;;;;;;17.65;10.65;;;17.00;99.90;;;;;;5036480;28;20074;-85
2023/07/13 04:53:32;;;;;;;16.48;10.20;;;17.10;99.90;;;;;;5052582;28;20033;-85
2023/07/13 04:55:58;;;;;;;18.15;10.50;;;17.20;99.90;;;;;;5036375;28;20040;-86
2023/07/13 04:58:25;;;;;;;17.33;15.55;;;17.20;99.90;;;;;;5053098;28;20036;-85
2023/07/13 05:00:51;;;;;;;17.50;11.85;;;17.20;99.90;;;;;;5052693;28;20182;-86
2023/07/13 05:03:16;;;;;;;15.30;10.65;;;17.30;99.90;;;;;;5035993;28;20135;-86
2023/07/13 05:05:42;;;;;;;22.27;13.27;;;17.40;99.90;;;;;;5036083;28;20130;-86
2023/07/13 05:08:08;;;;;;;15.65;10.00;;;17.50;99.90;;;;;;5035646;28;20402;-85
2023/07/13 05:10:34;;;;;;;18.27;13.93;;;17.60;99.90;;;;;;5070869;28;20111;-86
2023/07/13 05:13:00;;;;;;;13.90;10.82;;;17.60;99.90;;;;;;5038624;28;20041;-86
2023/07/13 05:15:26;;;;;;;17.48;11.60;;;17.60;99.90;;;;;;5035837;28;20368;-85
2023/07/13 05:17:52;;;;;;;14.27;9.13;;;17.70;99.90;;;;;;5035747;28;20048;-85
2023/07/13 05:20:19;;;;;;;17.58;8.95;;;17.90;99.90;;;;;;5052425;28;20032;-86
2023/07/13 05:22:46;;;;;;;12.85;6.97;;;18.40;99.90;;;;;;5052408;28;20371;-86
2023/07/13 05:25:13;;;;;;;14.45;4.32;;;19.30;99.90;;;;;;5035754;28;20036;-86
2023/07/13 05:27:39;;;;;;;12.68;4.72;;;20.40;99.90;;;;;;5035819;28;20262;-86
2023/07/13 05:30:05;;;;;;;15.75;4.90;;;21.30;99.90;;;;;;5035762;28;20234;-86
2023/07/13 05:32:31;;;;;;;14.45;4.22;;;22.20;99.90;;;;;;5038307;28;20097;-86
2023/07/13 05:34:57;;;;;;;18.63;4.53;;;23.00;99.90;;;;;;5055390;28;20040;-86
2023/07/13 05:37:22;;;;;;;20.90;4.78;;;23.60;99.90;;;;;;5071872;28;20078;-86
2023/07/13 05:39:48;;;;;;;9.07;4.60;;;24.20;99.90;;;;;;5055244;28;20036;-86
2023/07/13 05:42:14;;;;;;;18.77;4.05;;;24.90;99.90;;;;;;5055276;28;20386;-86
2023/07/13 05:44:40;;;;;;;8.18;3.97;;;25.30;99.90;;;;;;5072159;28;20028;-86
2023/07/13 05:47:06;;;;;;;14.43;5.82;;;25.40;99.90;;;;;;5070003;28;20043;-86
2023/07/13 05:49:32;;;;;;;13.55;5.15;;;25.80;99.90;;;;;;5035193;28;20040;-87
2023/07/13 05:51:58;;;;;;;10.57;3.88;;;26.40;99.90;;;;;;5051264;28;20036;-86
2023/07/13 05:54:24;;;;;;;11.55;4.75;;;26.80;99.90;;;;;;5051646;28;20033;-87
2023/07/13 05:56:49;;;;;;;11.95;8.45;;;27.20;99.90;;;;;;5051678;28;20392;-87
2023/07/13 05:59:15;;;;;;;11.50;4.85;;;27.80;99.90;;;;;;5069714;28;20044;-86
2023/07/13 06:01:41;;;;;;;12.02;7.85;;;28.40;99.50;;;;;;5051732;28;20637;-86
2023/07/13 06:04:07;;;;;;;17.55;12.43;;;28.60;97.70;;;;;;5071364;28;20044;-87
2023/07/13 06:06:33;;;;;;;26.60;24.67;;;28.80;97.90;;;;;;5053860;28;20460;-87
2023/07/13 06:08:59;;;;;;;218.05;204.88;;;29.20;97.70;;;;;;5047328;28;20059;-87
2023/07/13 06:11:27;;;;;;;229.45;215.52;;;29.40;97.10;;;;;;5034727;28;20482;-87
2023/07/13 06:13:53;;;;;;;273.63;256.63;;;29.40;96.80;;;;;;5069271;28;20055;-87
2023/07/13 06:16:20;;;;;;;253.48;238.48;;;29.70;96.90;;;;;;5034767;28;20502;-87
2023/07/13 06:18:46;;;;;;;335.35;312.00;;;29.80;96.00;;;;;;5034447;28;20040;-87
2023/07/13 06:21:18;;;;;;;516.30;477.10;;;30.00;96.00;;;;;;5050684;28;20040;-87
2023/07/13 06:23:45;;;;;;;732.88;671.78;;;29.70;95.30;;;;;;5051352;28;20037;-87
2023/07/13 06:26:11;;;;;;;759.42;696.85;;;30.30;95.00;;;;;;5051171;28;20043;-87
2023/07/13 06:28:37;;;;;;;928.33;840.75;;;30.50;95.40;;;;;;5048117;28;20040;-87
2023/07/13 06:31:06;;;;;;;989.50;891.05;;;30.50;95.60;;;;;;5089318;28;20431;-87
2023/07/13 06:33:31;;;;;;;1065.47;947.80;;;30.60;95.10;;;;;;5054692;28;20043;-87
2023/07/13 06:35:57;;;;;;;1103.22;971.20;;;31.00;95.00;;;;;;5053206;28;20035;-87
2023/07/13 06:38:23;;;;;;;1235.40;985.70;;;31.20;94.60;;;;;;5071272;28;20287;-87
2023/07/13 06:40:48;;;;;;;1317.68;999.90;;;31.00;94.70;;;;;;5070975;28;20040;-88
2023/07/13 06:43:14;;;;;;;1513.57;999.90;;;31.20;94.50;;;;;;5041387;28;20064;-87
2023/07/13 06:45:43;;;;;;;1537.00;999.90;;;31.10;94.80;;;;;;5050924;28;20036;-87
2023/07/13 06:48:09;;;;;;;1518.90;999.90;;;31.50;94.80;;;;;;5050727;28;20086;-87
2023/07/13 06:50:34;;;;;;;1695.68;999.90;;;31.70;94.60;;;;;;5033875;28;20037;-87
2023/07/13 06:53:00;;;;;;;1702.85;999.90;;;31.80;94.40;;;;;;5068966;28;20033;-87
2023/07/13 06:55:26;;;;;;;1515.60;999.90;;;32.20;94.50;;;;;;5069071;28;20378;-87
2023/07/13 06:57:51;;;;;;;1703.43;999.90;;;32.60;93.40;;;;;;5051231;28;20046;-87
2023/07/13 07:00:18;;;;;;;1747.30;999.90;;;32.60;93.20;;;;;;5050638;28;20799;-87
2023/07/13 07:02:43;;;;;;;1703.80;999.90;;;32.40;93.30;;;;;;5034074;28;20461;-88
2023/07/13 07:05:09;;;;;;;1662.55;999.90;;;32.20;93.10;;;;;;5068071;28;20064;-87
2023/07/13 07:07:35;;;;;;;1742.78;999.90;;;32.20;93.20;;;;;;5034092;28;20040;-87
2023/07/13 07:10:01;;;;;;;1653.80;999.90;;;31.90;93.10;;;;;;5034164;28;20046;-87
2023/07/13 07:12:26;;;;;;;1720.10;999.90;;;31.80;93.10;;;;;;5044164;28;20059;-87
2023/07/13 07:14:52;;;;;;;1872.88;999.90;;;31.60;93.00;;;;;;5070749;28;20040;-87
2023/07/13 07:17:18;;;;;;;1999.90;999.90;;;30.90;92.90;;;;;;5054149;28;20176;-87
2023/07/13 07:19:43;;;;;;;1999.90;999.90;;;29.80;93.50;;;;;;5053371;28;20442;-87
2023/07/13 07:22:09;;;;;;;1676.55;999.90;;;28.80;94.20;;;;;;5054080;28;20048;-87
2023/07/13 07:24:35;;;;;;;1261.45;993.50;;;27.90;94.70;;;;;;5053998;28;20046;-87
2023/07/13 07:27:00;;;;;;;893.65;810.05;;;27.00;95.40;;;;;;5061337;28;20227;-87
2023/07/13 07:29:27;;;;;;;651.25;600.55;;;26.10;96.10;;;;;;5050773;28;20059;-87
2023/07/13 07:31:53;;;;;;;514.10;478.88;;;25.60;96.60;;;;;;5033636;28;20127;-88
2023/07/13 07:34:19;;;;;;;497.75;464.60;;;25.10;97.00;;;;;;5033408;28;20427;-87
2023/07/13 07:36:45;;;;;;;417.90;391.10;;;24.80;97.50;;;;;;5033693;28;20059;-87
2023/07/13 07:39:11;;;;;;;303.90;285.58;;;24.70;97.40;;;;;;5050203;28;20106;-86
2023/07/13 07:41:37;;;;;;;199.60;187.73;;;24.50;98.00;;;;;;5057787;28;20036;-87
2023/07/13 07:44:03;;;;;;;128.32;120.60;;;24.30;98.70;;;;;;5053662;28;20032;-87
2023/07/13 07:46:29;;;;;;;65.60;61.55;;;24.00;98.90;;;;;;5070222;28;20495;-86
2023/07/13 07:48:56;;;;;;;27.67;25.15;;;23.90;99.20;;;;;;5090533;28;20115;-86
2023/07/13 07:51:22;;;;;;;36.47;34.03;;;24.70;99.80;;;;;;5074333;28;20367;-87
2023/07/13 07:53:48;;;;;;;73.70;69.10;;;25.80;99.00;;;;;;5074549;28;20094;-87
2023/07/13 07:56:16;;;;;;;102.82;96.65;;;26.30;98.00;;;;;;5050598;28;20052;-87
2023/07/13 07:58:42;;;;;;;118.53;111.55;;;26.40;97.30;;;;;;5071798;28;20051;-87
2023/07/13 08:01:08;;;;;;;126.82;119.25;;;26.40;97.80;;;;;;5053315;28;20040;-87
2023/07/13 08:03:34;;;;;;;60.97;57.33;;;26.80;97.20;;;;;;5054300;28;20063;-87
2023/07/13 08:06:00;;;;;;;131.02;123.13;;;26.60;96.20;;;;;;5071394;28;20076;-86
2023/07/13 08:08:25;;;;;;;84.88;79.65;;;26.10;96.50;;;;;;5054004;28;20036;-87
2023/07/13 08:10:52;;;;;;;165.23;155.48;;;25.70;96.10;;;;;;5042555;28;20436;-87
2023/07/13 08:13:17;;;;;;;120.38;113.10;;;25.00;96.90;;;;;;5091944;28;20379;-87
2023/07/13 08:15:43;;;;;;;79.70;75.05;;;24.70;97.70;;;;;;5073111;28;20039;-86
2023/07/13 08:18:09;;;;;;;29.73;27.38;;;24.30;97.80;;;;;;5073740;28;20036;-86
2023/07/13 08:20:41;;;;;;;20.48;18.75;;;24.10;99.00;;;;;;5073877;28;20096;-86
2023/07/13 08:23:09;;;;;;;29.40;27.42;;;24.50;99.30;;;;;;5057241;28;20058;-86
2023/07/13 08:25:35;;;;;;;50.05;46.67;;;25.20;98.90;;;;;;5067816;28;20041;-87
2023/07/13 08:28:02;;;;;;;83.10;78.00;;;25.70;98.50;;;;;;5053352;28;20036;-87
2023/07/13 08:30:28;;;;;;;76.30;71.78;;;25.80;98.00;;;;;;5053300;28;20048;-87
2023/07/13 08:32:54;;;;;;;84.22;79.38;;;25.80;97.90;;;;;;5071275;28;20123;-87
2023/07/13 08:35:20;;;;;;;67.03;63.03;;;25.40;97.50;;;;;;5036806;28;20131;-87
2023/07/13 08:37:46;;;;;;;46.75;43.33;;;24.90;97.00;;;;;;5053298;28;20079;-86
2023/07/13 08:40:12;;;;;;;15.40;14.00;;;24.50;98.10;;;;;;5037960;28;20036;-87
2023/07/13 08:42:44;;;;;;;11.38;6.00;;;24.30;99.00;;;;;;5038208;28;20367;-87
2023/07/13 08:46:05;;;;;;;9.82;8.05;;;24.00;99.90;;;;;;5052913;28;20037;-86
2023/07/13 08:48:53;;;;;;;11.82;5.82;;;23.90;99.90;;;;;;4988965;28;20057;-86
2023/07/13 08:51:28;;;;;;;9.98;6.85;;;23.60;99.90;;;;;;4989124;28;20049;-87
2023/07/13 08:54:00;;;;;;;6.80;4.93;;;23.30;99.90;;;;;;4956663;28;20046;-87
2023/07/13 08:56:28;;;;;;;6.53;5.57;;;23.10;99.90;;;;;;4972708;28;20096;-86
2023/07/13 08:59:09;;;;;;;8.57;7.70;;;22.70;99.90;;;;;;4972095;28;20093;-86
2023/07/13 09:02:16;;;;;;;7.47;5.95;;;22.10;99.90;;;;;;4972670;28;20042;-86
2023/07/13 09:04:49;;;;;;;11.05;4.93;;;21.60;99.90;;;;;;4967142;28;20404;-86
2023/07/13 09:07:34;;;;;;;9.32;4.05;;;21.40;99.90;;;;;;4956263;28;20401;-86
2023/07/13 09:10:05;;;;;;;9.95;4.05;;;21.20;99.90;;;;;;4956211;28;20065;-86
2023/07/13 09:12:39;;;;;;;7.70;3.20;;;21.80;99.90;;;;;;4972257;28;20079;-86
2023/07/13 09:15:13;;;;;;;6.93;2.45;;;22.40;99.90;;;;;;4988127;28;20045;-87
2023/07/13 09:17:50;;;;;;;5.15;2.30;;;23.00;99.90;;;;;;4972449;28;20050;-87
2023/07/13 09:20:44;;;;;;;7.75;2.80;;;23.20;99.90;;;;;;5052456;28;20138;-87
2023/07/13 09:23:18;;;;;;;9.00;3.35;;;23.30;99.90;;;;;;5070474;28;20036;-86
2023/07/13 09:25:47;;;;;;;7.88;4.80;;;23.70;99.90;;;;;;5035635;28;20036;-87
2023/07/13 09:28:22;;;;;;;6.50;5.05;;;23.80;99.90;;;;;;5045046;28;20036;-87
2023/07/13 09:31:09;;;;;;;12.00;10.93;;;24.50;99.90;;;;;;5072307;28;20039;-87
2023/07/13 09:33:35;;;;;;;16.83;15.60;;;24.90;99.50;;;;;;5055700;28;20114;-87
2023/07/13 09:36:09;;;;;;;28.27;26.23;;;25.20;98.80;;;;;;5055718;28;20133;-88
2023/07/13 09:38:35;;;;;;;18.70;17.40;;;25.50;99.10;;;;;;5072569;28;20044;-87
2023/07/13 09:41:26;;;;;;;24.42;22.73;;;26.10;99.40;;;;;;5072106;28;20063;-87
2023/07/13 09:44:28;;;;;;;34.90;32.60;;;26.40;98.80;;;;;;5053910;28;20444;-87
2023/07/13 09:46:55;;;;;;;58.17;54.72;;;26.90;98.10;;;;;;5051855;28;20070;-87
2023/07/13 09:49:26;;;;;;;62.85;58.97;;;27.00;98.70;;;;;;5035284;28;20124;-87
2023/07/13 09:52:00;;;;;;;72.43;67.50;;;27.30;97.90;;;;;;5052082;28;20040;-87
2023/07/13 09:54:26;;;;;;;135.95;127.57;;;27.20;97.60;;;;;;5035503;28;20051;-87
2023/07/13 09:56:59;;;;;;;218.98;206.27;;;26.60;97.90;;;;;;5038173;28;20036;-86
2023/07/13 09:59:31;;;;;;;174.95;164.68;;;26.20;99.20;;;;;;5071600;28;20506;-88
2023/07/13 10:01:57;;;;;;;71.13;66.80;;;25.60;99.90;;;;;;5055451;28;20069;-87
2023/07/13 10:04:31;;;;;;;38.75;35.90;;;25.10;99.90;;;;;;5072223;28;20040;-88
2023/07/13 10:07:09;;;;;;;16.90;15.55;;;24.50;99.90;;;;;;5055047;28;20374;-87
2023/07/13 10:09:35;;;;;;;8.98;8.02;;;24.00;99.90;;;;;;5072424;28;20085;-87
2023/07/13 10:12:01;;;;;;;13.43;9.25;;;23.60;99.90;;;;;;5082183;28;20036;-87
2023/07/13 10:14:28;;;;;;;14.32;12.93;;;23.20;99.90;;;;;;5051734;28;20093;-87
2023/07/13 10:17:03;;;;;;;13.43;6.63;;;22.80;99.90;;;;;;5051856;28;20037;-87
2023/07/13 10:19:35;;;;;;;9.27;4.50;;;22.20;99.90;;;;;;5034831;28;20041;-86
2023/07/13 10:22:10;;;;;;;14.53;5.50;;;22.00;99.90;;;;;;5069312;28;20127;-85
2023/07/13 10:24:38;;;;;;;6.63;4.47;;;21.80;99.90;;;;;;5035225;28;20032;-86
2023/07/13 10:27:15;;;;;;;10.45;5.25;;;21.60;99.90;;;;;;5059566;28;20136;-86
2023/07/13 10:30:01;;;;;;;7.75;5.57;;;21.40;99.90;;;;;;5065372;28;20498;-86
2023/07/13 10:32:27;;;;;;;10.70;6.28;;;21.20;99.90;;;;;;5034791;28;20136;-86
2023/07/13 10:34:55;;;;;;;8.00;6.20;;;21.00;99.90;;;;;;5034338;28;20115;-86
2023/07/13 10:37:48;;;;;;;8.85;5.30;;;21.20;99.90;;;;;;5051034;28;20040;-86
2023/07/13 10:40:27;;;;;;;6.20;4.20;;;21.70;99.90;;;;;;5034666;28;20036;-86
2023/07/13 10:42:58;;;;;;;6.05;4.00;;;22.40;99.90;;;;;;5034002;28;20048;-86
2023/07/13 10:45:24;;;;;;;8.27;4.60;;;22.60;99.90;;;;;;5060581;28;20098;-86
2023/07/13 10:47:55;;;;;;;6.95;4.22;;;22.40;99.90;;;;;;5034188;28;20119;-86
2023/07/13 10:50:32;;;;;;;5.32;3.80;;;22.20;99.90;;;;;;5051006;28;20067;-86
2023/07/13 10:53:18;;;;;;;7.30;4.35;;;22.00;99.90;;;;;;5051043;28;20052;-86
2023/07/13 10:55:53;;;;;;;6.28;4.03;;;22.00;99.90;;;;;;5050812;28;20086;-86
2023/07/13 10:58:44;;;;;;;6.07;3.70;;;22.30;99.90;;;;;;5034404;28;20036;-87
2023/07/13 11:01:16;;;;;;;6.22;3.95;;;22.60;99.90;;;;;;5051060;28;20561;-86
2023/07/13 11:03:49;;;;;;;6.82;3.65;;;23.20;99.90;;;;;;5034479;28;20062;-87
2023/07/13 11:06:37;;;;;;;6.43;4.45;;;23.90;99.90;;;;;;5050897;28;20057;-88
2023/07/13 11:09:39;;;;;;;7.20;4.80;;;24.20;99.90;;;;;;5051270;28;20351;-87
2023/07/13 11:12:26;;;;;;;8.30;4.70;;;24.20;99.90;;;;;;5064738;28;20102;-87
2023/07/13 11:14:54;;;;;;;7.85;4.68;;;24.20;99.90;;;;;;5043452;28;20041;-87
2023/07/13 11:17:32;;;;;;;7.53;3.95;;;24.00;99.90;;;;;;5051072;28;20048;-87
2023/07/13 11:20:13;;;;;;;7.57;4.82;;;23.80;99.90;;;;;;5050596;28;20080;-87
2023/07/13 11:23:07;;;;;;;7.15;4.78;;;23.80;99.90;;;;;;5052814;28;20052;-87
2023/07/13 11:25:37;;;;;;;7.60;6.82;;;23.80;99.90;;;;;;5072304;28;20482;-87
2023/07/13 11:28:12;;;;;;;10.00;4.07;;;23.50;99.90;;;;;;5038263;28;20044;-87
2023/07/13 11:30:55;;;;;;;6.70;3.92;;;23.70;99.90;;;;;;5055212;28;20041;-87
2023/07/13 11:33:26;;;;;;;;;;;23.90;99.90;;;;;;5055662;28;20506;-88
2023/07/13 11:36:03;;;;;;;6.97;4.32;;;24.00;99.90;;;;;;5073291;28;20273;-88
2023/07/13 11:38:39;;;;;;;13.55;4.25;;;24.10;99.90;;;;;;5038433;28;20044;-88
2023/07/13 11:41:17;;;;;;;7.68;6.63;;;24.00;99.90;;;;;;5038005;28;20565;-88
2023/07/13 11:43:43;;;;;;;18.13;16.90;;;24.30;99.90;;;;;;5045514;28;20466;-87
2023/07/13 11:46:14;;;;;;;14.50;13.45;;;24.70;99.90;;;;;;5057552;28;20036;-87
2023/07/13 11:48:40;;;;;;;28.20;26.35;;;24.90;99.90;;;;;;5058074;28;20314;-87
2023/07/13 11:51:06;;;;;;;24.35;22.65;;;24.40;99.90;;;;;;5074560;28;20287;-87
2023/07/13 11:53:46;;;;;;;34.78;32.58;;;24.40;99.90;;;;;;5057475;28;20513;-88
2023/07/13 11:56:12;;;;;;;34.42;32.15;;;24.50;99.90;;;;;;5057600;28;20090;-88
2023/07/13 11:58:39;;;;;;;39.13;36.72;;;24.50;99.90;;;;;;5065342;28;20033;-87
2023/07/13 12:01:05;;;;;;;50.13;47.05;;;24.50;99.90;;;;;;5037820;28;20041;-87
2023/07/13 12:03:33;;;;;;;48.00;45.00;;;24.10;99.50;;;;;;5054177;28;20127;-87
2023/07/13 12:06:08;;;;;;;45.28;42.53;;;23.90;99.80;;;;;;5037268;28;20457;-88
2023/07/13 12:08:40;;;;;;;38.60;36.05;;;23.70;99.90;;;;;;5037392;28;20047;-87
2023/07/13 12:11:15;;;;;;;20.90;19.48;;;23.90;99.90;;;;;;5054140;28;20464;-87
2023/07/13 12:13:41;;;;;;;44.60;41.72;;;24.20;99.90;;;;;;5064911;28;20032;-87
2023/07/13 12:16:29;;;;;;;127.10;119.45;;;24.40;99.90;;;;;;5041484;28;20090;-87
2023/07/13 12:18:56;;;;;;;193.98;182.40;;;24.50;99.90;;;;;;5070284;28;20042;-87
2023/07/13 12:21:43;;;;;;;139.50;130.15;;;24.30;98.80;;;;;;5053640;28;20478;-86
2023/07/13 12:24:17;;;;;;;410.75;384.13;;;24.50;99.90;;;;;;5053139;28;20048;-88
2023/07/13 12:26:44;;;;;;;414.98;386.80;;;24.50;98.10;;;;;;5036953;28;20502;-88
2023/07/13 12:29:16;;;;;;;544.33;505.02;;;24.70;98.50;;;;;;5070245;28;20491;-87
2023/07/13 12:31:48;;;;;;;550.28;510.75;;;25.00;98.50;;;;;;5036830;28;20040;-88
2023/07/13 12:34:19;;;;;;;601.47;557.90;;;24.90;98.50;;;;;;5052835;28;20033;-88
2023/07/13 12:36:58;;;;;;;565.38;524.90;;;24.80;98.90;;;;;;5052932;28;20044;-88
2023/07/13 12:39:37;;;;;;;585.10;542.97;;;25.10;99.70;;;;;;5053615;28;20036;-88
2023/07/13 12:42:27;;;;;;;608.03;564.00;;;25.40;99.00;;;;;;5071736;28;20443;-87